Terminal Aerodrome Forecast
Issued by NWS

Home | Current Version | Previous Version | Text Only | Print | Product List | Glossary On
Versions: 1 2 3 4 5 6 7 8 9 10 11 12 13 14
000
FTUS44 KEPZ 031700
TAFDMN
TAF
KDMN 031720Z 0318/0418 26009KT P6SM VCSH BKN060 BKN080
     FM032100 24014G22KT P6SM SCT060 BKN090
     FM040900 26007KT P6SM VCSH SCT050 BKN100=

USA.gov is the U.S. government's official web portal to all federal, state and local government web resources and services.